Time;durP1;ratioP1;P1;durP2;ratioP2;P2;SDS_P1;SDS_P2;PMS_P1;PMS_P2;Temp;Humidity;BMP_temperature;BMP_pressure;BME280_temperature;BME280_humidity;BME280_pressure;Samples;Min_cycle;Max_cycle;Signal;HPM_P1;HPM_P2
2023/10/15 00:02:13;;;;;;;6.10;0.93;;;;;;;;;;4986180;28;100559;-65
2023/10/15 00:04:39;;;;;;;2.83;1.08;;;;;;;;;;4991726;28;101212;-65
2023/10/15 00:07:06;;;;;;;3.53;0.88;;;;;;;;;;4988447;28;100210;-65
2023/10/15 00:09:33;;;;;;;2.20;0.80;;;;;;;;;;4993933;28;99446;-65
2023/10/15 00:11:59;;;;;;;1.85;0.65;;;;;;;;;;4991216;28;99314;-65
2023/10/15 00:14:26;;;;;;;5.82;1.17;;;;;;;;;;4990938;28;99635;-65
2023/10/15 00:16:55;;;;;;;3.20;1.20;;;;;;;;;;4992256;28;98664;-65
2023/10/15 00:19:22;;;;;;;6.28;1.13;;;;;;;;;;4991658;28;99314;-65
2023/10/15 00:21:48;;;;;;;3.35;0.70;;;;;;;;;;4990699;28;100476;-65
2023/10/15 00:24:15;;;;;;;2.03;0.90;;;;;;;;;;4990802;28;98513;-64
2023/10/15 00:26:41;;;;;;;5.95;1.02;;;;;;;;;;4990909;28;99466;-65
2023/10/15 00:29:08;;;;;;;4.68;1.30;;;;;;;;;;4994402;28;100470;-64
2023/10/15 00:31:34;;;;;;;5.40;1.20;;;;;;;;;;4990684;28;99478;-65
2023/10/15 00:34:01;;;;;;;9.55;1.70;;;;;;;;;;4990951;28;99544;-65
2023/10/15 00:36:27;;;;;;;2.30;0.90;;;;;;;;;;4991189;28;98872;-63
2023/10/15 00:38:53;;;;;;;4.70;1.75;;;;;;;;;;4990981;28;99143;-63
2023/10/15 00:41:20;;;;;;;7.30;1.85;;;;;;;;;;4989847;28;99836;-63
2023/10/15 00:43:51;;;;;;;5.78;0.93;;;;;;;;;;4991337;28;97967;-62
2023/10/15 00:46:18;;;;;;;9.68;1.63;;;;;;;;;;4991494;28;98599;-62
2023/10/15 00:48:45;;;;;;;3.72;0.82;;;;;;;;;;4990069;28;100591;-63
2023/10/15 00:51:13;;;;;;;6.55;1.08;;;;;;;;;;4994485;28;99680;-63
2023/10/15 00:53:49;;;;;;;5.65;1.27;;;;;;;;;;4989380;28;99518;-63
2023/10/15 00:56:18;;;;;;;6.30;1.40;;;;;;;;;;4987233;28;98456;-63
2023/10/15 01:01:22;;;;;;;3.58;1.33;;;;;;;;;;4990709;28;99997;-63
2023/10/15 01:03:59;;;;;;;5.90;1.42;;;;;;;;;;4990268;28;98660;-62
2023/10/15 01:06:32;;;;;;;4.07;1.13;;;;;;;;;;4990221;28;99732;-62
2023/10/15 01:09:00;;;;;;;11.85;1.30;;;;;;;;;;4990636;28;98713;-63
2023/10/15 01:11:30;;;;;;;4.88;1.05;;;;;;;;;;4988479;28;98602;-63
2023/10/15 01:13:57;;;;;;;3.17;1.20;;;;;;;;;;4992732;28;99133;-63
2023/10/15 01:16:27;;;;;;;1.92;1.00;;;;;;;;;;4990774;28;99277;-62
2023/10/15 01:19:14;;;;;;;8.35;1.23;;;;;;;;;;4990754;28;100997;-62
2023/10/15 01:22:03;;;;;;;1.98;0.82;;;;;;;;;;4984743;28;99553;-62
2023/10/15 01:24:33;;;;;;;3.70;0.75;;;;;;;;;;4989416;28;98534;-62
2023/10/15 01:27:04;;;;;;;6.18;1.23;;;;;;;;;;4990318;28;99204;-63
2023/10/15 01:29:33;;;;;;;4.60;0.90;;;;;;;;;;4989634;28;99166;-62
2023/10/15 01:32:03;;;;;;;2.42;0.90;;;;;;;;;;4990588;28;98719;-62
2023/10/15 01:34:34;;;;;;;4.00;1.03;;;;;;;;;;4990552;28;99099;-62
2023/10/15 01:37:00;;;;;;;3.13;0.82;;;;;;;;;;4992597;28;99513;-62
2023/10/15 01:39:38;;;;;;;5.00;0.68;;;;;;;;;;4989602;28;98953;-63
2023/10/15 01:42:06;;;;;;;3.00;0.73;;;;;;;;;;4988868;28;100302;-63
2023/10/15 01:44:39;;;;;;;3.53;0.57;;;;;;;;;;4990482;28;99650;-62
2023/10/15 01:49:31;;;;;;;2.50;1.00;;;;;;;;;;4989341;28;99517;-63
2023/10/15 01:52:05;;;;;;;1.95;0.50;;;;;;;;;;4989296;28;98625;-63
2023/10/15 01:54:32;;;;;;;2.53;0.95;;;;;;;;;;4989363;28;99141;-63
2023/10/15 01:56:59;;;;;;;4.05;1.00;;;;;;;;;;4990021;28;99591;-63
2023/10/15 01:59:26;;;;;;;4.88;1.00;;;;;;;;;;4993689;28;97786;-62
2023/10/15 02:01:54;;;;;;;1.58;0.60;;;;;;;;;;4988580;28;99481;-62
2023/10/15 02:04:26;;;;;;;6.10;1.00;;;;;;;;;;4989405;28;98627;-63
2023/10/15 02:06:53;;;;;;;1.48;0.50;;;;;;;;;;4989026;28;100183;-62
2023/10/15 02:09:22;;;;;;;6.07;0.82;;;;;;;;;;4989572;28;99652;-63
2023/10/15 02:11:48;;;;;;;5.38;0.70;;;;;;;;;;4989264;28;98575;-63
2023/10/15 02:14:23;;;;;;;4.43;0.85;;;;;;;;;;4989906;28;99230;-63
2023/10/15 02:16:50;;;;;;;4.20;0.75;;;;;;;;;;4988775;28;99533;-62
2023/10/15 02:19:34;;;;;;;2.92;0.68;;;;;;;;;;4989518;28;98835;-62
2023/10/15 02:22:01;;;;;;;2.03;0.50;;;;;;;;;;4992985;28;100215;-63
2023/10/15 02:24:33;;;;;;;1.02;0.50;;;;;;;;;;4989811;28;97783;-62
2023/10/15 02:27:05;;;;;;;3.42;0.60;;;;;;;;;;4988423;28;98427;-62
2023/10/15 02:32:07;;;;;;;1.48;0.80;;;;;;;;;;4992568;28;99271;-62
2023/10/15 02:34:40;;;;;;;1.98;0.50;;;;;;;;;;4984548;28;99858;-62
2023/10/15 02:37:10;;;;;;;2.65;0.70;;;;;;;;;;4988883;28;99438;-62
2023/10/15 02:39:39;;;;;;;3.43;0.80;;;;;;;;;;4989384;28;98636;-62
2023/10/15 02:42:06;;;;;;;2.75;0.65;;;;;;;;;;4992483;28;100243;-62
2023/10/15 02:44:32;;;;;;;1.85;0.50;;;;;;;;;;4988874;28;98879;-63
2023/10/15 02:49:53;;;;;;;2.30;0.52;;;;;;;;;;4985458;28;98600;-62
2023/10/15 02:52:20;;;;;;;3.47;0.40;;;;;;;;;;4985376;28;98568;-62
2023/10/15 02:54:46;;;;;;;3.08;0.80;;;;;;;;;;4985031;28;99324;-63
2023/10/15 02:57:16;;;;;;;1.55;0.38;;;;;;;;;;4988685;28;101574;-65
2023/10/15 02:59:50;;;;;;;2.55;0.63;;;;;;;;;;4985421;28;98471;-65
2023/10/15 03:02:20;;;;;;;1.63;0.32;;;;;;;;;;4986276;28;100127;-65
2023/10/15 03:04:51;;;;;;;9.98;1.40;;;;;;;;;;4989213;28;100580;-64
2023/10/15 03:07:19;;;;;;;2.63;0.50;;;;;;;;;;4986101;28;100575;-65
2023/10/15 03:09:48;;;;;;;4.10;0.80;;;;;;;;;;4988355;28;99786;-65
2023/10/15 03:12:18;;;;;;;2.43;0.60;;;;;;;;;;4985259;28;98740;-64
2023/10/15 03:14:45;;;;;;;4.20;0.70;;;;;;;;;;4985527;28;99135;-65
2023/10/15 03:17:14;;;;;;;0.73;0.40;;;;;;;;;;4989539;28;99486;-65
2023/10/15 03:19:42;;;;;;;2.08;0.35;;;;;;;;;;4992159;28;98659;-65
2023/10/15 03:22:12;;;;;;;1.05;0.50;;;;;;;;;;4991938;28;99432;-65
2023/10/15 03:24:43;;;;;;;1.95;0.60;;;;;;;;;;4992222;28;99574;-64
2023/10/15 03:27:09;;;;;;;1.58;0.60;;;;;;;;;;4995881;28;98596;-65
2023/10/15 03:29:36;;;;;;;1.35;0.43;;;;;;;;;;4991310;28;99459;-64
2023/10/15 03:32:23;;;;;;;0.90;0.50;;;;;;;;;;4990931;28;98528;-65
2023/10/15 03:34:59;;;;;;;4.78;1.02;;;;;;;;;;4988710;28;99171;-65
2023/10/15 03:37:27;;;;;;;2.17;0.65;;;;;;;;;;4991393;28;100434;-64
2023/10/15 03:39:54;;;;;;;2.42;0.80;;;;;;;;;;4992614;28;97976;-64
2023/10/15 03:42:26;;;;;;;4.35;1.10;;;;;;;;;;4991305;28;98975;-64
2023/10/15 03:45:01;;;;;;;2.45;0.90;;;;;;;;;;4990630;28;99490;-65
2023/10/15 03:47:28;;;;;;;1.48;0.75;;;;;;;;;;4991837;28;99471;-65
2023/10/15 03:49:55;;;;;;;2.97;0.88;;;;;;;;;;4994429;28;99826;-64
2023/10/15 03:52:22;;;;;;;2.92;0.60;;;;;;;;;;4991774;28;98570;-65
2023/10/15 03:54:52;;;;;;;1.85;0.70;;;;;;;;;;4992025;28;99146;-65
2023/10/15 03:57:19;;;;;;;6.95;0.90;;;;;;;;;;4987845;28;99502;-65
2023/10/15 03:59:51;;;;;;;2.35;0.80;;;;;;;;;;4991939;28;98510;-65
2023/10/15 04:02:46;;;;;;;4.72;0.63;;;;;;;;;;4991254;28;99121;-65
2023/10/15 04:05:20;;;;;;;1.00;0.57;;;;;;;;;;4987498;28;98789;-65
2023/10/15 04:07:49;;;;;;;1.67;0.63;;;;;;;;;;4988246;28;98862;-65
2023/10/15 04:10:33;;;;;;;2.08;0.60;;;;;;;;;;4987515;28;98978;-65
2023/10/15 04:13:00;;;;;;;4.18;1.40;;;;;;;;;;4994190;28;100142;-64
2023/10/15 04:15:30;;;;;;;1.98;0.90;;;;;;;;;;4989880;28;99785;-65
2023/10/15 04:17:57;;;;;;;4.18;0.85;;;;;;;;;;4990690;28;99484;-65
2023/10/15 04:20:34;;;;;;;3.13;0.77;;;;;;;;;;4990914;28;98474;-65
2023/10/15 04:23:01;;;;;;;7.47;1.42;;;;;;;;;;4991107;28;99112;-65
2023/10/15 04:25:32;;;;;;;3.08;0.90;;;;;;;;;;4990382;28;99529;-65
2023/10/15 04:28:16;;;;;;;5.95;1.27;;;;;;;;;;4990058;28;98668;-65
2023/10/15 04:30:42;;;;;;;3.10;1.10;;;;;;;;;;4991541;28;99139;-65
2023/10/15 04:33:14;;;;;;;3.03;0.60;;;;;;;;;;4989412;28;99483;-65
2023/10/15 04:35:41;;;;;;;3.38;0.80;;;;;;;;;;4994371;28;98531;-64
2023/10/15 04:38:07;;;;;;;3.90;0.80;;;;;;;;;;4989787;28;100549;-65
2023/10/15 04:40:48;;;;;;;4.63;0.90;;;;;;;;;;4990216;28;98774;-65
2023/10/15 04:43:14;;;;;;;4.25;0.95;;;;;;;;;;4990499;28;99219;-65
2023/10/15 04:45:44;;;;;;;2.88;0.80;;;;;;;;;;4990806;28;99475;-64
2023/10/15 04:48:15;;;;;;;4.32;0.70;;;;;;;;;;4991754;28;98993;-65
2023/10/15 04:50:43;;;;;;;2.47;0.90;;;;;;;;;;4991075;28;99204;-65
2023/10/15 04:53:14;;;;;;;1.75;0.60;;;;;;;;;;4989298;28;99369;-65
2023/10/15 04:55:41;;;;;;;2.42;0.40;;;;;;;;;;4994421;28;97943;-64
2023/10/15 04:58:08;;;;;;;4.75;0.80;;;;;;;;;;4990145;28;99521;-64
2023/10/15 05:00:35;;;;;;;2.13;0.75;;;;;;;;;;4990343;28;99744;-65
2023/10/15 05:03:02;;;;;;;6.30;0.75;;;;;;;;;;4990283;28;99542;-65
2023/10/15 05:05:31;;;;;;;0.47;0.47;;;;;;;;;;4990079;28;100873;-65
2023/10/15 05:08:00;;;;;;;1.33;0.50;;;;;;;;;;4990386;28;98635;-65
2023/10/15 05:10:30;;;;;;;1.67;0.50;;;;;;;;;;4990779;28;99238;-65
2023/10/15 05:12:59;;;;;;;2.20;0.85;;;;;;;;;;4990490;28;100484;-65
2023/10/15 05:15:26;;;;;;;4.53;0.70;;;;;;;;;;4989910;28;98579;-65
2023/10/15 05:17:52;;;;;;;4.38;0.80;;;;;;;;;;4994087;28;99079;-64
2023/10/15 05:20:20;;;;;;;2.22;1.00;;;;;;;;;;4991144;28;97793;-64
2023/10/15 05:22:47;;;;;;;2.65;0.68;;;;;;;;;;4986862;28;98590;-65
2023/10/15 05:25:20;;;;;;;1.33;0.60;;;;;;;;;;4989700;28;99979;-65
2023/10/15 05:27:49;;;;;;;2.85;0.77;;;;;;;;;;4989071;28;99433;-64
2023/10/15 05:30:16;;;;;;;3.95;0.80;;;;;;;;;;4990200;28;101134;-65
2023/10/15 05:32:43;;;;;;;0.68;0.50;;;;;;;;;;4990205;28;100522;-64
2023/10/15 05:35:10;;;;;;;1.17;0.60;;;;;;;;;;4989680;28;98461;-65
2023/10/15 05:37:39;;;;;;;7.32;1.27;;;;;;;;;;4989643;28;99274;-64
2023/10/15 05:40:06;;;;;;;1.25;0.70;;;;;;;;;;4992441;28;99231;-65
2023/10/15 05:42:33;;;;;;;4.75;1.10;;;;;;;;;;4990073;28;99280;-64
2023/10/15 05:45:00;;;;;;;1.95;0.85;;;;;;;;;;4990263;28;100181;-65
2023/10/15 05:47:26;;;;;;;2.20;0.85;;;;;;;;;;4990111;28;98934;-65
2023/10/15 05:49:57;;;;;;;2.55;0.98;;;;;;;;;;4990247;28;99130;-65
2023/10/15 05:52:23;;;;;;;2.65;0.90;;;;;;;;;;4989159;28;100168;-65
2023/10/15 05:54:53;;;;;;;2.97;0.95;;;;;;;;;;4989969;28;98550;-65
2023/10/15 05:57:21;;;;;;;4.28;0.70;;;;;;;;;;4986327;28;98963;-65
2023/10/15 05:59:48;;;;;;;2.50;0.55;;;;;;;;;;4988536;28;99751;-64
2023/10/15 06:02:14;;;;;;;1.90;0.70;;;;;;;;;;4993322;28;98919;-65
2023/10/15 06:04:42;;;;;;;4.70;0.90;;;;;;;;;;4989216;28;99663;-64
2023/10/15 06:07:09;;;;;;;2.22;0.50;;;;;;;;;;4989831;28;98929;-65
2023/10/15 06:09:36;;;;;;;1.92;0.95;;;;;;;;;;4989480;28;99301;-64
2023/10/15 06:12:04;;;;;;;4.35;1.00;;;;;;;;;;4988685;28;99386;-65
2023/10/15 06:14:31;;;;;;;5.10;1.10;;;;;;;;;;4989452;28;98605;-65
2023/10/15 06:16:57;;;;;;;4.78;2.00;;;;;;;;;;4988453;28;99346;-64
2023/10/15 06:19:24;;;;;;;7.03;2.00;;;;;;;;;;4994100;28;101135;-64
2023/10/15 06:21:51;;;;;;;2.50;0.80;;;;;;;;;;4985609;28;98513;-64
2023/10/15 06:24:17;;;;;;;1.85;0.88;;;;;;;;;;4992202;28;99167;-65
2023/10/15 06:26:44;;;;;;;2.83;0.93;;;;;;;;;;4988713;28;98533;-65
2023/10/15 06:29:10;;;;;;;6.80;0.85;;;;;;;;;;4989641;28;99874;-62
2023/10/15 06:31:37;;;;;;;3.40;1.05;;;;;;;;;;4988688;28;99437;-62
2023/10/15 06:34:03;;;;;;;5.13;1.00;;;;;;;;;;4989368;28;97960;-62
2023/10/15 06:36:30;;;;;;;1.27;0.60;;;;;;;;;;4990100;28;99457;-62
2023/10/15 06:39:00;;;;;;;3.75;1.00;;;;;;;;;;4988652;28;99465;-62
2023/10/15 06:41:26;;;;;;;3.35;1.00;;;;;;;;;;4988855;28;99229;-62
2023/10/15 06:43:53;;;;;;;1.42;0.93;;;;;;;;;;4991525;28;100002;-62
2023/10/15 06:46:21;;;;;;;3.83;1.13;;;;;;;;;;4988908;28;98637;-62
2023/10/15 06:48:48;;;;;;;4.72;1.38;;;;;;;;;;4988766;28;99141;-62
2023/10/15 06:51:17;;;;;;;2.45;1.02;;;;;;;;;;4986779;28;99469;-62
2023/10/15 06:53:44;;;;;;;3.60;1.00;;;;;;;;;;4988348;28;98595;-62
2023/10/15 06:56:11;;;;;;;6.55;1.50;;;;;;;;;;4989527;28;98822;-62
2023/10/15 06:58:37;;;;;;;2.53;1.00;;;;;;;;;;4988681;28;98662;-62
2023/10/15 07:01:06;;;;;;;4.47;1.23;;;;;;;;;;4988261;28;98744;-62
2023/10/15 07:03:34;;;;;;;7.95;1.30;;;;;;;;;;4988283;28;99304;-62
2023/10/15 07:06:00;;;;;;;4.45;1.50;;;;;;;;;;4989635;28;100416;-62
2023/10/15 07:08:26;;;;;;;3.90;1.27;;;;;;;;;;4988788;28;99893;-62
2023/10/15 07:10:53;;;;;;;5.32;1.10;;;;;;;;;;4988655;28;100659;-62
2023/10/15 07:13:19;;;;;;;4.25;1.00;;;;;;;;;;4989050;28;98637;-62
2023/10/15 07:15:46;;;;;;;4.20;1.58;;;;;;;;;;4988314;28;100382;-62
2023/10/15 07:18:12;;;;;;;6.57;0.93;;;;;;;;;;4988828;28;99455;-62
2023/10/15 07:20:39;;;;;;;8.13;1.20;;;;;;;;;;4988676;28;98523;-62
2023/10/15 07:23:05;;;;;;;6.97;1.00;;;;;;;;;;4988421;28;99539;-63
2023/10/15 07:25:32;;;;;;;3.90;0.88;;;;;;;;;;4988424;28;99512;-62
2023/10/15 07:27:59;;;;;;;4.63;0.95;;;;;;;;;;4992341;28;98614;-62
2023/10/15 07:30:26;;;;;;;9.50;1.08;;;;;;;;;;4987712;28;100312;-62
2023/10/15 07:32:58;;;;;;;6.80;1.00;;;;;;;;;;4985119;28;98516;-62
2023/10/15 07:35:27;;;;;;;3.22;1.25;;;;;;;;;;4984968;28;99149;-62
2023/10/15 07:37:53;;;;;;;5.75;0.90;;;;;;;;;;4984937;28;100494;-62
2023/10/15 07:40:25;;;;;;;7.38;1.33;;;;;;;;;;4988540;28;98655;-62
2023/10/15 07:42:53;;;;;;;7.70;1.73;;;;;;;;;;4987421;28;99318;-62
2023/10/15 07:45:20;;;;;;;5.15;1.20;;;;;;;;;;4988145;28;100501;-62
2023/10/15 07:47:46;;;;;;;5.40;1.20;;;;;;;;;;4988355;28;97795;-62
2023/10/15 07:50:16;;;;;;;6.38;1.23;;;;;;;;;;4991156;28;98925;-62
2023/10/15 07:52:44;;;;;;;8.40;1.13;;;;;;;;;;4988133;28;98674;-62
2023/10/15 07:55:11;;;;;;;5.60;1.05;;;;;;;;;;4987698;28;100092;-62
2023/10/15 07:57:37;;;;;;;3.05;0.73;;;;;;;;;;4986964;28;99335;-63
2023/10/15 08:00:08;;;;;;;2.63;0.90;;;;;;;;;;4988324;28;98811;-63
2023/10/15 08:02:35;;;;;;;4.93;0.98;;;;;;;;;;4988821;28;100189;-62
2023/10/15 08:05:02;;;;;;;4.45;1.30;;;;;;;;;;4990173;28;99474;-62
2023/10/15 08:07:33;;;;;;;6.57;0.90;;;;;;;;;;4991009;28;98532;-62
2023/10/15 08:09:59;;;;;;;4.57;0.80;;;;;;;;;;4991541;28;100553;-62
2023/10/15 08:12:27;;;;;;;5.85;0.73;;;;;;;;;;4994888;28;98726;-62
2023/10/15 08:14:55;;;;;;;6.70;1.30;;;;;;;;;;4988068;28;99132;-62
2023/10/15 08:17:23;;;;;;;2.97;0.90;;;;;;;;;;4990839;28;100591;-62
2023/10/15 08:19:50;;;;;;;1.65;0.52;;;;;;;;;;4990898;28;99347;-61
2023/10/15 08:22:16;;;;;;;6.15;0.80;;;;;;;;;;4991245;28;100919;-62
2023/10/15 08:24:43;;;;;;;4.95;0.90;;;;;;;;;;4990354;28;100520;-62
2023/10/15 08:27:13;;;;;;;3.88;0.93;;;;;;;;;;4990874;28;98954;-62
2023/10/15 08:29:40;;;;;;;3.33;0.70;;;;;;;;;;4991356;28;99210;-62
2023/10/15 08:32:10;;;;;;;1.27;0.60;;;;;;;;;;4990403;28;99878;-62
2023/10/15 08:34:36;;;;;;;3.70;0.80;;;;;;;;;;4994692;28;98482;-63
2023/10/15 08:37:02;;;;;;;4.00;0.65;;;;;;;;;;4990675;28;98715;-62
2023/10/15 08:39:29;;;;;;;2.80;0.57;;;;;;;;;;4990788;28;98827;-62
2023/10/15 08:41:57;;;;;;;5.30;0.80;;;;;;;;;;4991036;28;99163;-62
2023/10/15 08:44:24;;;;;;;1.75;0.73;;;;;;;;;;4989096;28;100216;-63
2023/10/15 08:46:50;;;;;;;1.88;0.80;;;;;;;;;;4991196;28;99021;-62
2023/10/15 08:49:17;;;;;;;1.77;0.60;;;;;;;;;;4990637;28;98884;-64
2023/10/15 08:51:45;;;;;;;4.57;1.73;;;;;;;;;;4990473;28;99604;-65
2023/10/15 08:54:12;;;;;;;5.22;1.27;;;;;;;;;;4994285;28;98574;-64
2023/10/15 08:56:39;;;;;;;7.00;1.48;;;;;;;;;;4990097;28;100742;-65
2023/10/15 08:59:09;;;;;;;5.63;1.35;;;;;;;;;;4990880;28;99838;-64
2023/10/15 09:01:36;;;;;;;4.87;1.40;;;;;;;;;;4990489;28;99241;-64
2023/10/15 09:04:04;;;;;;;7.97;0.98;;;;;;;;;;4990158;28;99441;-65
2023/10/15 09:06:31;;;;;;;5.53;1.17;;;;;;;;;;4990494;28;101371;-65
2023/10/15 09:08:57;;;;;;;2.22;0.82;;;;;;;;;;4986265;28;99146;-65
2023/10/15 09:11:24;;;;;;;4.68;0.73;;;;;;;;;;4989873;28;99490;-65
2023/10/15 09:13:52;;;;;;;3.20;0.68;;;;;;;;;;4985407;28;98578;-64
2023/10/15 09:16:20;;;;;;;2.30;0.70;;;;;;;;;;4992867;28;99529;-65
2023/10/15 09:18:47;;;;;;;4.40;0.80;;;;;;;;;;4995012;28;99384;-65
2023/10/15 09:21:23;;;;;;;4.07;0.70;;;;;;;;;;4990091;28;99117;-64
2023/10/15 09:23:50;;;;;;;3.58;0.65;;;;;;;;;;4989531;28;99498;-65
2023/10/15 09:26:17;;;;;;;1.38;0.60;;;;;;;;;;4991217;28;97881;-64
2023/10/15 09:28:44;;;;;;;6.60;1.25;;;;;;;;;;4990440;28;99879;-64
2023/10/15 09:31:11;;;;;;;1.48;0.82;;;;;;;;;;4989123;28;100593;-64
2023/10/15 09:33:38;;;;;;;3.45;0.80;;;;;;;;;;4989848;28;99458;-65
2023/10/15 09:36:05;;;;;;;4.32;0.68;;;;;;;;;;4989954;28;100913;-64
2023/10/15 09:38:32;;;;;;;1.48;0.52;;;;;;;;;;4992766;28;100510;-65
2023/10/15 09:40:59;;;;;;;2.05;0.63;;;;;;;;;;4986277;28;99124;-65
2023/10/15 09:43:26;;;;;;;2.92;0.70;;;;;;;;;;4989336;28;100416;-64
2023/10/15 09:45:54;;;;;;;4.68;0.82;;;;;;;;;;4989759;28;98776;-65
2023/10/15 09:48:24;;;;;;;6.00;1.05;;;;;;;;;;4989645;28;99131;-65
2023/10/15 09:50:57;;;;;;;6.47;1.17;;;;;;;;;;4989616;28;99168;-64
2023/10/15 09:53:24;;;;;;;3.28;0.65;;;;;;;;;;4990568;28;98626;-65
2023/10/15 09:55:51;;;;;;;1.52;0.63;;;;;;;;;;4990100;28;100268;-65
2023/10/15 09:58:18;;;;;;;6.05;1.40;;;;;;;;;;4988043;28;100252;-62
2023/10/15 10:03:25;;;;;;;5.70;1.10;;;;;;;;;;4989651;28;99438;-62
2023/10/15 10:05:58;;;;;;;4.20;0.95;;;;;;;;;;4989081;28;98528;-62
2023/10/15 10:08:39;;;;;;;6.20;0.95;;;;;;;;;;4989887;28;99198;-62
2023/10/15 10:11:05;;;;;;;4.82;1.10;;;;;;;;;;4985468;28;99533;-62
2023/10/15 10:13:32;;;;;;;4.57;1.15;;;;;;;;;;4989804;28;98437;-62
2023/10/15 10:15:59;;;;;;;5.47;1.13;;;;;;;;;;4988317;28;100296;-63
2023/10/15 10:18:27;;;;;;;3.45;1.17;;;;;;;;;;4989637;28;99912;-62
2023/10/15 10:20:55;;;;;;;5.07;1.17;;;;;;;;;;4988518;28;98461;-63
2023/10/15 10:23:24;;;;;;;7.82;1.05;;;;;;;;;;4991420;28;99292;-62
2023/10/15 10:26:12;;;;;;;7.60;0.95;;;;;;;;;;4985771;28;98700;-62
2023/10/15 10:28:39;;;;;;;9.27;1.38;;;;;;;;;;4988374;28;99272;-63
2023/10/15 10:31:09;;;;;;;8.35;1.00;;;;;;;;;;4988909;28;99666;-63
2023/10/15 10:33:44;;;;;;;3.78;0.80;;;;;;;;;;4989274;28;98579;-63
2023/10/15 10:36:18;;;;;;;3.28;0.85;;;;;;;;;;4988993;28;99460;-62
2023/10/15 10:38:52;;;;;;;5.93;1.23;;;;;;;;;;4988000;28;99646;-62
2023/10/15 10:41:19;;;;;;;2.47;0.98;;;;;;;;;;4989241;28;97863;-63
2023/10/15 10:43:52;;;;;;;5.45;0.93;;;;;;;;;;4988905;28;98637;-62
2023/10/15 10:46:42;;;;;;;7.00;1.27;;;;;;;;;;4989869;28;99748;-63
2023/10/15 10:49:18;;;;;;;6.93;1.50;;;;;;;;;;4988260;28;100905;-62
2023/10/15 10:52:04;;;;;;;2.85;0.52;;;;;;;;;;4992804;28;102194;-62
2023/10/15 10:54:31;;;;;;;6.00;1.00;;;;;;;;;;4989304;28;98586;-62
2023/10/15 10:56:59;;;;;;;4.20;0.77;;;;;;;;;;4988734;28;99162;-62
2023/10/15 10:59:27;;;;;;;9.27;1.45;;;;;;;;;;4988697;28;99451;-62
2023/10/15 11:01:54;;;;;;;3.97;1.05;;;;;;;;;;4988311;28;99307;-62
2023/10/15 11:04:21;;;;;;;3.88;1.02;;;;;;;;;;4988996;28;99297;-62
2023/10/15 11:06:48;;;;;;;8.27;1.52;;;;;;;;;;4992556;28;98697;-62
2023/10/15 11:09:15;;;;;;;3.28;0.60;;;;;;;;;;4988651;28;99377;-65
2023/10/15 11:11:42;;;;;;;4.00;0.98;;;;;;;;;;4988633;28;100978;-64
2023/10/15 11:14:12;;;;;;;6.03;0.77;;;;;;;;;;4987865;28;99379;-65
2023/10/15 11:16:45;;;;;;;2.80;0.70;;;;;;;;;;4988826;28;101031;-65
2023/10/15 11:19:22;;;;;;;3.13;0.70;;;;;;;;;;4988468;28;99475;-65
2023/10/15 11:21:49;;;;;;;2.70;0.63;;;;;;;;;;4987382;28;98797;-65
2023/10/15 11:24:16;;;;;;;2.13;0.77;;;;;;;;;;4988137;28;98758;-65
2023/10/15 11:26:45;;;;;;;3.63;1.15;;;;;;;;;;4988247;28;99521;-65
2023/10/15 11:29:12;;;;;;;2.40;1.00;;;;;;;;;;4991457;28;98643;-65
2023/10/15 11:31:43;;;;;;;3.88;1.08;;;;;;;;;;4988654;28;100166;-64
2023/10/15 11:34:11;;;;;;;6.25;0.90;;;;;;;;;;4986942;28;98571;-65
2023/10/15 11:36:38;;;;;;;4.32;1.02;;;;;;;;;;4988601;28;99223;-65
2023/10/15 11:39:11;;;;;;;2.22;1.10;;;;;;;;;;4990096;28;99452;-65
2023/10/15 11:41:38;;;;;;;4.53;1.42;;;;;;;;;;4988675;28;98900;-65
2023/10/15 11:44:06;;;;;;;5.78;1.48;;;;;;;;;;4992109;28;99142;-64
2023/10/15 11:46:35;;;;;;;3.63;1.05;;;;;;;;;;4988200;28;99574;-64
2023/10/15 11:49:02;;;;;;;2.90;0.77;;;;;;;;;;4991179;28;98644;-64
2023/10/15 11:51:29;;;;;;;2.03;0.75;;;;;;;;;;4994311;28;99166;-64
2023/10/15 11:54:09;;;;;;;5.85;1.58;;;;;;;;;;4991238;28;98519;-65
2023/10/15 11:56:37;;;;;;;3.95;0.60;;;;;;;;;;4992168;28;99190;-64
2023/10/15 11:59:03;;;;;;;3.70;1.00;;;;;;;;;;4991846;28;100513;-64
2023/10/15 12:01:30;;;;;;;3.45;1.35;;;;;;;;;;4991668;28;99572;-64
2023/10/15 12:03:57;;;;;;;5.88;0.63;;;;;;;;;;4990783;28;99350;-64
2023/10/15 12:06:23;;;;;;;2.45;0.75;;;;;;;;;;4991342;28;99783;-64
2023/10/15 12:08:50;;;;;;;8.35;1.40;;;;;;;;;;4991400;28;98556;-65
2023/10/15 12:11:18;;;;;;;4.60;1.17;;;;;;;;;;4991039;28;99339;-65
2023/10/15 12:13:47;;;;;;;6.93;1.00;;;;;;;;;;4994022;28;99812;-65
2023/10/15 12:16:14;;;;;;;1.50;0.52;;;;;;;;;;4991583;28;99144;-65
2023/10/15 12:18:41;;;;;;;2.25;0.90;;;;;;;;;;4991047;28;100464;-65
2023/10/15 12:21:07;;;;;;;2.97;0.90;;;;;;;;;;4991607;28;98078;-62
2023/10/15 12:23:33;;;;;;;1.27;0.55;;;;;;;;;;4987822;28;98605;-63
2023/10/15 12:26:07;;;;;;;5.70;1.02;;;;;;;;;;4991191;28;99448;-63
2023/10/15 12:28:44;;;;;;;3.85;1.27;;;;;;;;;;4991562;28;99454;-63
2023/10/15 12:31:11;;;;;;;3.05;0.75;;;;;;;;;;4988394;28;99841;-63
2023/10/15 12:33:38;;;;;;;2.28;0.70;;;;;;;;;;4990922;28;100509;-63
2023/10/15 12:36:07;;;;;;;4.63;3.08;;;;;;;;;;4994694;28;98874;-63
2023/10/15 12:38:34;;;;;;;19.45;7.47;;;;;;;;;;4990172;28;99491;-63
2023/10/15 12:41:00;;;;;;;31.40;18.00;;;;;;;;;;4991332;28;99452;-63
2023/10/15 12:43:27;;;;;;;48.33;23.98;;;;;;;;;;4989332;28;99415;-63
2023/10/15 12:45:54;;;;;;;32.97;13.85;;;;;;;;;;4989886;28;98748;-63
2023/10/15 12:48:20;;;;;;;9.38;3.45;;;;;;;;;;4990325;28;98601;-63
2023/10/15 12:50:47;;;;;;;3.90;1.05;;;;;;;;;;4989746;28;99115;-63
2023/10/15 12:53:15;;;;;;;3.72;0.80;;;;;;;;;;4988090;28;99880;-63
2023/10/15 12:55:43;;;;;;;3.88;0.90;;;;;;;;;;4990786;28;98561;-63
2023/10/15 12:58:10;;;;;;;6.38;0.90;;;;;;;;;;4993283;28;99363;-63
2023/10/15 13:00:43;;;;;;;4.18;1.10;;;;;;;;;;4987109;28;98494;-63
2023/10/15 13:03:10;;;;;;;7.88;1.02;;;;;;;;;;4986897;28;99082;-63
2023/10/15 13:05:36;;;;;;;3.35;1.00;;;;;;;;;;4986704;28;99181;-63
2023/10/15 13:08:03;;;;;;;3.40;0.85;;;;;;;;;;4990449;28;98654;-63
2023/10/15 13:10:29;;;;;;;6.35;0.90;;;;;;;;;;4990525;28;98895;-63
2023/10/15 13:12:56;;;;;;;5.93;1.15;;;;;;;;;;4989568;28;99454;-62
2023/10/15 13:15:22;;;;;;;3.45;0.88;;;;;;;;;;4990483;28;98557;-63
2023/10/15 13:17:49;;;;;;;6.07;0.90;;;;;;;;;;4992919;28;99537;-64
2023/10/15 13:20:17;;;;;;;4.65;0.88;;;;;;;;;;4991105;28;99030;-63
2023/10/15 13:22:44;;;;;;;1.80;0.80;;;;;;;;;;4990146;28;100141;-63
2023/10/15 13:25:11;;;;;;;2.05;0.90;;;;;;;;;;4989832;28;98656;-63
2023/10/15 13:27:38;;;;;;;3.80;0.80;;;;;;;;;;4986517;28;98577;-64
2023/10/15 13:30:05;;;;;;;6.65;0.85;;;;;;;;;;4990266;28;99322;-63
2023/10/15 13:32:31;;;;;;;4.25;2.50;;;;;;;;;;4988863;28;99333;-62
2023/10/15 13:34:58;;;;;;;16.35;14.60;;;;;;;;;;4990949;28;97983;-64
2023/10/15 13:37:24;;;;;;;49.53;43.70;;;;;;;;;;4988917;28;99606;-62
2023/10/15 13:39:52;;;;;;;84.75;68.95;;;;;;;;;;4991744;28;99451;-62
2023/10/15 13:42:19;;;;;;;96.40;76.78;;;;;;;;;;4987892;28;99745;-62
2023/10/15 13:44:45;;;;;;;173.82;124.00;;;;;;;;;;4988513;28;99516;-62
2023/10/15 13:47:11;;;;;;;175.52;156.20;;;;;;;;;;4988837;28;98557;-62
2023/10/15 13:49:38;;;;;;;220.95;183.95;;;;;;;;;;4984854;28;100321;-62
2023/10/15 13:52:04;;;;;;;359.17;290.40;;;;;;;;;;4987920;28;99485;-61
2023/10/15 13:54:30;;;;;;;348.98;276.15;;;;;;;;;;4987726;28;98602;-62
2023/10/15 13:56:57;;;;;;;269.65;214.77;;;;;;;;;;4988341;28;100489;-63
2023/10/15 13:59:24;;;;;;;140.38;79.28;;;;;;;;;;4988386;28;98730;-63
2023/10/15 14:01:55;;;;;;;45.63;23.15;;;;;;;;;;4991670;28;98608;-63
2023/10/15 14:04:22;;;;;;;4.90;1.23;;;;;;;;;;4988607;28;101856;-64
2023/10/15 14:06:49;;;;;;;6.93;1.20;;;;;;;;;;4989493;28;99464;-64
2023/10/15 14:09:15;;;;;;;5.57;1.55;;;;;;;;;;4989734;28;100878;-63
2023/10/15 14:11:42;;;;;;;6.53;1.60;;;;;;;;;;4989265;28;100411;-63
2023/10/15 14:14:09;;;;;;;11.60;1.48;;;;;;;;;;4985973;28;98549;-63
2023/10/15 14:16:35;;;;;;;3.28;0.90;;;;;;;;;;4989801;28;99158;-63
2023/10/15 14:19:02;;;;;;;4.70;0.88;;;;;;;;;;4988675;28;100549;-64
2023/10/15 14:21:28;;;;;;;2.78;0.80;;;;;;;;;;4990030;28;99032;-63
2023/10/15 14:23:55;;;;;;;4.88;0.70;;;;;;;;;;4992241;28;99145;-64
2023/10/15 14:26:22;;;;;;;3.33;0.82;;;;;;;;;;4989256;28;98650;-64
2023/10/15 14:28:48;;;;;;;2.45;1.10;;;;;;;;;;4989531;28;99217;-63
2023/10/15 14:31:16;;;;;;;2.83;0.80;;;;;;;;;;4988503;28;101332;-64
2023/10/15 14:33:43;;;;;;;3.13;0.70;;;;;;;;;;4989524;28;98537;-64
2023/10/15 14:36:09;;;;;;;2.92;0.73;;;;;;;;;;4985701;28;99182;-64
2023/10/15 14:38:36;;;;;;;2.90;0.98;;;;;;;;;;4988411;28;99469;-64
2023/10/15 14:41:02;;;;;;;4.25;0.82;;;;;;;;;;4989161;28;98414;-64
2023/10/15 14:43:29;;;;;;;4.07;0.70;;;;;;;;;;4989049;28;100435;-64
2023/10/15 14:45:56;;;;;;;2.25;0.50;;;;;;;;;;4992189;28;99420;-64
2023/10/15 14:48:26;;;;;;;2.15;0.73;;;;;;;;;;4989395;28;99233;-62
2023/10/15 14:50:52;;;;;;;0.98;0.73;;;;;;;;;;4988433;28;100535;-65
2023/10/15 14:53:19;;;;;;;8.75;1.50;;;;;;;;;;4988685;28;98505;-63
2023/10/15 14:55:45;;;;;;;6.72;4.78;;;;;;;;;;4988876;28;99518;-63
2023/10/15 14:58:15;;;;;;;2.40;1.55;;;;;;;;;;4988905;28;99512;-63
2023/10/15 15:00:42;;;;;;;83.90;57.67;;;;;;;;;;4989112;28;98795;-63